Time;durP1;ratioP1;P1;durP2;ratioP2;P2;SDS_P1;SDS_P2;PMS_P1;PMS_P2;Temp;Humidity;BMP_temperature;BMP_pressure;BME280_temperature;BME280_humidity;BME280_pressure;Samples;Min_cycle;Max_cycle;Signal;HPM_P1;HPM_P2
2022/08/08 00:00:11;;;;;;;;;2.25;2.00;;;;;22.90;36.05;102061.13;2402305;28;45377;-84
2022/08/08 00:01:46;;;;;;;;;2.00;2.00;;;;;22.88;35.49;102063.94;2404360;28;45270;-83
2022/08/08 00:03:25;;;;;;;;;4.00;2.25;;;;;22.88;35.78;102073.78;2404161;28;45537;-82
2022/08/08 00:04:51;;;;;;;;;3.50;2.75;;;;;22.86;36.41;102070.34;2399440;28;44877;-82
2022/08/08 00:06:32;;;;;;;;;2.00;2.00;;;;;22.84;35.96;102062.38;2403606;28;45524;-82
2022/08/08 00:08:03;;;;;;;;;3.00;3.00;;;;;22.82;36.38;102070.53;2404028;28;45253;-82
2022/08/08 00:09:27;;;;;;;;;6.00;3.75;;;;;22.80;36.40;102067.09;2404206;28;45421;-84
2022/08/08 00:10:47;;;;;;;;;5.50;3.25;;;;;22.75;36.04;102058.50;2404408;28;45202;-83
2022/08/08 00:12:01;;;;;;;;;3.75;3.00;;;;;22.72;36.79;102068.56;2404022;28;45465;-83
2022/08/08 00:13:23;;;;;;;;;3.25;3.25;;;;;22.68;36.80;102062.50;2404190;28;45223;-82
2022/08/08 00:14:47;;;;;;;;;3.00;3.00;;;;;22.67;36.57;102061.63;2403500;28;46524;-84
2022/08/08 00:16:03;;;;;;;;;5.00;3.00;;;;;22.70;36.74;102061.47;2394253;28;45387;-85
2022/08/08 00:17:22;;;;;;;;;3.00;3.00;;;;;22.69;36.85;102067.78;2387953;28;46193;-85
2022/08/08 00:18:48;;;;;;;;;3.50;3.00;;;;;22.70;37.00;102061.47;2380936;28;45178;-86
2022/08/08 00:20:06;;;;;;;;;3.00;3.00;;;;;22.70;36.48;102056.13;2384399;28;48420;-86
2022/08/08 00:21:24;;;;;;;;;3.00;3.00;;;;;22.67;37.21;102050.91;2382596;28;45345;-86
2022/08/08 00:22:49;;;;;;;;;3.00;2.75;;;;;22.65;36.80;102058.19;2396508;28;45346;-87
2022/08/08 00:24:25;;;;;;;;;3.00;3.00;;;;;22.57;37.38;102055.16;2399892;28;45233;-88
2022/08/08 00:25:40;;;;;;;;;2.75;2.75;;;;;22.52;37.35;102058.09;2393938;28;47515;-85
2022/08/08 00:26:55;;;;;;;;;4.00;3.00;;;;;22.51;36.99;102061.75;2403631;28;44600;-85
2022/08/08 00:28:11;;;;;;;;;2.00;2.00;;;;;22.47;37.23;102049.53;2403802;28;45472;-84
2022/08/08 00:29:45;;;;;;;;;3.00;3.00;;;;;22.45;37.35;102059.44;2393959;28;45191;-85
2022/08/08 00:30:58;;;;;;;;;2.25;2.25;;;;;22.45;37.60;102052.28;2400175;28;45443;-84
2022/08/08 00:32:14;;;;;;;;;2.25;2.25;;;;;22.42;37.74;102049.78;2404260;28;44682;-86
2022/08/08 00:33:31;;;;;;;;;2.75;2.00;;;;;22.41;37.68;102050.78;2402844;28;47271;-85
2022/08/08 00:35:21;;;;;;;;;5.00;4.75;;;;;22.40;37.74;102049.03;2393648;28;45596;-88
2022/08/08 00:36:43;;;;;;;;;2.75;2.75;;;;;22.37;37.48;102049.25;2393766;28;47110;-91
2022/08/08 00:38:29;;;;;;;;;4.50;3.25;;;;;22.37;38.05;102046.56;2398139;28;46477;-91
2022/08/08 00:40:02;;;;;;;;;3.50;3.50;;;;;22.35;38.26;102051.13;2393403;28;47190;-90
2022/08/08 00:41:31;;;;;;;;;3.00;3.00;;;;;22.32;38.10;102051.34;2398542;28;45215;-86
2022/08/08 00:43:12;;;;;;;;;6.25;3.25;;;;;22.31;37.81;102049.63;2402546;28;45339;-86
2022/08/08 00:44:41;;;;;;;;;5.00;4.00;;;;;22.30;37.92;102047.91;2393398;28;45556;-88
2022/08/08 00:46:19;;;;;;;;;4.00;3.00;;;;;22.28;38.33;102044.44;2399133;28;45429;-89
2022/08/08 00:47:47;;;;;;;;;3.50;3.50;;;;;22.26;38.21;102047.22;2393883;28;45335;-88
2022/08/08 00:49:26;;;;;;;;;3.00;3.00;;;;;22.23;38.29;102048.28;2389249;28;47095;-90
2022/08/08 00:50:51;;;;;;;;;3.75;3.00;;;;;22.18;38.38;102050.38;2394182;28;45323;-90
2022/08/08 00:52:42;;;;;;;;;4.00;4.00;;;;;22.20;38.44;102047.63;2386686;28;47373;-90
2022/08/08 00:54:28;;;;;;;;;3.00;3.00;;;;;22.18;38.44;102045.03;2392581;28;45261;-89
2022/08/08 00:56:19;;;;;;;;;4.25;3.25;;;;;22.13;38.65;102044.44;2365705;29;45480;-91
2022/08/08 00:57:54;;;;;;;;;4.50;3.25;;;;;22.13;38.81;102047.13;2385631;28;45372;-88
2022/08/08 00:59:35;;;;;;;;;5.25;3.75;;;;;22.09;38.53;102042.94;2390153;28;48109;-88
2022/08/08 01:01:21;;;;;;;;;4.25;3.25;;;;;22.06;38.81;102052.00;2394535;28;44609;-90
2022/08/08 01:03:09;;;;;;;;;2.75;2.75;;;;;22.06;39.21;102049.34;2400406;28;46498;-90
2022/08/08 01:04:38;;;;;;;;;4.75;4.75;;;;;22.05;38.94;102039.56;2395621;28;44735;-88
2022/08/08 01:06:10;;;;;;;;;4.00;4.00;;;;;22.03;38.90;102039.66;2402915;28;45329;-86
2022/08/08 01:07:48;;;;;;;;;1.00;1.00;;;;;22.02;38.77;102040.66;2403947;28;44624;-86
2022/08/08 01:09:41;;;;;;;;;3.00;3.00;;;;;22.00;38.69;102039.84;2400129;28;46335;-87
2022/08/08 01:11:04;;;;;;;;;4.00;4.00;;;;;21.99;38.89;102038.16;2403620;28;45173;-89
2022/08/08 01:12:23;;;;;;;;;5.00;3.25;;;;;21.99;38.74;102034.59;2402726;28;45229;-86
2022/08/08 01:13:53;;;;;;;;;4.25;4.25;;;;;22.01;39.06;102038.03;2393279;28;45424;-87
2022/08/08 01:15:41;;;;;;;;;4.25;4.00;;;;;21.99;38.95;102046.19;2383232;28;48150;-87
2022/08/08 01:17:16;;;;;;;;;3.00;3.00;;;;;21.92;38.93;102039.47;2401755;28;44574;-88
2022/08/08 01:18:55;;;;;;;;;2.00;2.00;;;;;21.88;39.26;102033.44;2392985;28;47182;-88
2022/08/08 01:20:14;;;;;;;;;5.25;3.50;;;;;21.85;39.16;102032.75;2400315;28;45432;-85
2022/08/08 01:21:31;;;;;;;;;2.00;2.00;;;;;21.83;39.31;102032.00;2403335;28;48263;-85
2022/08/08 01:22:59;;;;;;;;;3.00;3.00;;;;;21.81;39.22;102035.59;2384408;28;44604;-85
2022/08/08 01:24:15;;;;;;;;;5.00;3.25;;;;;21.79;39.23;102033.97;2389533;28;46664;-84
2022/08/08 01:25:56;;;;;;;;;3.75;3.75;;;;;21.78;39.25;102029.59;2394362;28;44694;-85
2022/08/08 01:27:32;;;;;;;;;4.50;3.25;;;;;21.80;39.08;102030.34;2394114;28;45444;-85
2022/08/08 01:29:26;;;;;;;;;3.00;3.00;;;;;21.80;39.18;102031.19;2401265;28;44546;-86
2022/08/08 01:30:58;;;;;;;;;3.25;3.25;;;;;21.83;39.35;102037.34;2403322;28;46716;-86
2022/08/08 01:32:40;;;;;;;;;3.50;3.00;;;;;21.82;39.34;102028.44;2403518;28;45386;-86
2022/08/08 01:34:14;;;;;;;;;4.00;3.00;;;;;21.78;39.43;102027.75;2393324;28;47412;-85
2022/08/08 01:36:00;;;;;;;;;5.00;3.00;;;;;21.78;39.67;102025.06;2398986;28;44619;-86
2022/08/08 01:37:50;;;;;;;;;5.00;4.00;;;;;21.76;39.40;102023.44;2374194;28;45405;-86
2022/08/08 01:39:26;;;;;;;;;2.00;2.00;;;;;21.76;39.52;102026.13;2403232;28;45428;-86
2022/08/08 01:40:55;;;;;;;;;3.75;3.75;;;;;21.75;39.82;102025.28;2392939;28;46943;-85
2022/08/08 05:01:47;;;;;;;;;8.00;7.25;;;;;19.71;45.72;102071.06;2377763;28;67790;-83
2022/08/08 05:02:58;;;;;;;;;9.75;7.75;;;;;19.70;45.68;102071.16;2386658;28;45187;-83
2022/08/08 05:04:08;;;;;;;;;7.75;6.75;;;;;19.72;45.44;102074.59;2394533;28;45146;-83
2022/08/08 05:05:19;;;;;;;;;7.75;7.75;;;;;19.71;45.76;102065.72;2394858;28;45324;-84
2022/08/08 05:06:29;;;;;;;;;7.25;7.25;;;;;19.73;45.71;102066.50;2383613;28;45244;-85
2022/08/08 05:07:39;;;;;;;;;7.75;7.75;;;;;19.76;45.41;102074.34;2375684;28;48714;-84
2022/08/08 05:08:51;;;;;;;;;9.75;7.75;;;;;19.78;45.47;102071.59;2385900;28;45186;-84
2022/08/08 05:10:01;;;;;;;;;9.25;8.75;;;;;19.76;45.84;102070.81;2393758;28;46457;-84
2022/08/08 05:11:12;;;;;;;;;9.25;8.00;;;;;19.74;45.47;102070.03;2393565;28;45381;-85
2022/08/08 05:12:23;;;;;;;;;7.00;7.00;;;;;19.71;45.68;102071.06;2383397;28;47258;-85
2022/08/08 05:13:33;;;;;;;;;8.25;6.75;;;;;19.68;45.97;102073.88;2386475;28;45441;-83
2022/08/08 05:14:43;;;;;;;;;8.25;8.25;;;;;19.67;45.93;102075.69;2391976;28;46415;-84
2022/08/08 05:15:54;;;;;;;;;10.25;8.75;;;;;19.66;46.58;102073.09;2379430;28;45330;-84
2022/08/08 05:17:04;;;;;;;;;7.00;6.00;;;;;19.65;45.96;102077.59;2386299;28;46513;-86
2022/08/08 05:18:14;;;;;;;;;10.75;9.75;;;;;19.62;46.25;102077.72;2380095;28;44879;-87
2022/08/08 05:19:25;;;;;;;;;9.75;6.00;;;;;19.65;46.12;102079.38;2376047;28;47955;-85
2022/08/08 05:20:35;;;;;;;;;10.50;9.75;;;;;19.62;46.14;102076.84;2376897;28;45516;-85
2022/08/08 05:21:46;;;;;;;;;8.25;6.00;;;;;19.63;46.13;102081.25;2386348;28;45562;-85
2022/08/08 05:22:56;;;;;;;;;7.25;7.00;;;;;19.64;46.12;102077.66;2393635;28;45275;-84
2022/08/08 05:24:07;;;;;;;;;11.75;9.00;;;;;19.63;45.98;102078.59;2393361;28;45394;-84
2022/08/08 05:25:18;;;;;;;;;8.25;8.00;;;;;19.62;46.30;102083.06;2383366;28;45349;-84
2022/08/08 05:26:28;;;;;;;;;7.00;7.00;;;;;19.65;45.87;102076.72;2376774;28;46945;-89
2022/08/08 05:27:39;;;;;;;;;5.75;5.75;;;;;19.67;46.05;102088.16;2376826;28;45277;-89
2022/08/08 05:28:49;;;;;;;;;7.00;7.00;;;;;19.68;46.20;102087.19;2386549;28;45261;-90
2022/08/08 05:29:59;;;;;;;;;9.50;9.50;;;;;19.71;46.09;102087.06;2383769;28;45156;-84
2022/08/08 05:31:11;;;;;;;;;9.00;8.00;;;;;19.72;45.97;102091.47;2384686;28;47051;-85
2022/08/08 05:32:22;;;;;;;;;7.25;6.75;;;;;19.71;45.84;102094.19;2392899;28;45251;-84
2022/08/08 05:33:32;;;;;;;;;10.25;8.00;;;;;19.69;46.41;102088.94;2393066;28;46158;-84
2022/08/08 05:34:48;;;;;;;;;9.50;8.75;;;;;19.71;46.45;102087.06;2393162;28;45802;-84
2022/08/08 05:36:01;;;;;;;;;8.75;6.00;;;;;19.72;46.12;102094.13;2382523;28;47100;-85
2022/08/08 05:37:15;;;;;;;;;7.75;6.75;;;;;19.71;45.75;102086.19;2386678;28;45206;-84
2022/08/08 05:38:28;;;;;;;;;11.25;7.25;;;;;19.72;45.99;102091.47;2392972;28;45318;-84
2022/08/08 05:39:40;;;;;;;;;8.00;7.00;;;;;19.73;46.20;102090.50;2392929;28;45167;-84
2022/08/08 05:40:52;;;;;;;;;7.25;7.00;;;;;19.71;45.69;102089.72;2391872;28;45539;-84
2022/08/08 05:42:03;;;;;;;;;9.75;7.25;;;;;19.70;46.04;102095.16;2391207;28;45716;-85
2022/08/08 05:43:35;;;;;;;;;8.75;7.75;;;;;19.66;46.24;102092.63;2392488;28;45657;-85
2022/08/08 05:44:48;;;;;;;;;7.75;7.00;;;;;19.63;46.12;102095.44;2392739;28;45366;-84
2022/08/08 05:46:02;;;;;;;;;7.75;7.75;;;;;19.64;46.27;102098.97;2382649;28;48133;-83
2022/08/08 05:47:12;;;;;;;;;9.50;8.00;;;;;19.65;46.28;102100.72;2386358;28;45423;-83
2022/08/08 05:48:23;;;;;;;;;9.00;9.00;;;;;19.64;46.54;102112.31;2392712;28;45468;-84
2022/08/08 05:49:35;;;;;;;;;11.50;9.00;;;;;19.64;46.21;102106.97;2393015;28;45262;-84
2022/08/08 05:50:46;;;;;;;;;8.00;8.00;;;;;19.62;46.21;102104.41;2392516;28;45339;-89
2022/08/08 05:51:56;;;;;;;;;5.25;5.00;;;;;19.63;46.31;102111.44;2393476;28;45200;-87
2022/08/08 05:53:07;;;;;;;;;10.25;8.00;;;;;19.64;46.47;102102.50;2391035;28;45183;-85
2022/08/08 05:54:18;;;;;;;;;8.00;8.00;;;;;19.67;46.30;102106.84;2386186;28;45377;-89
2022/08/08 05:55:33;;;;;;;;;8.50;7.00;;;;;19.64;46.14;102107.84;2392931;28;47220;-91
2022/08/08 05:56:44;;;;;;;;;9.50;8.75;;;;;19.65;46.22;102114.91;2392614;28;45463;-89
2022/08/08 05:57:58;;;;;;;;;6.00;6.00;;;;;19.65;46.15;102108.72;2380150;28;47873;-89
2022/08/08 05:59:19;;;;;;;;;7.75;7.75;;;;;19.63;46.46;102115.94;2384588;28;44767;-90
2022/08/08 06:00:31;;;;;;;;;8.25;7.25;;;;;19.64;46.13;102112.31;2375238;28;48647;-95
2022/08/08 06:01:42;;;;;;;;;5.25;4.00;;;;;19.66;46.48;102110.44;2385037;28;45375;-93
2022/08/08 06:03:10;;;;;;;;;8.50;8.25;;;;;19.65;46.53;102109.59;2378839;28;46843;-89
2022/08/08 06:04:25;;;;;;;;;10.00;7.75;;;;;19.68;46.47;102113.88;2383988;28;45445;-90
2022/08/08 06:05:44;;;;;;;;;7.75;7.00;;;;;19.65;46.35;102109.59;2377754;28;48510;-87
2022/08/08 06:06:58;;;;;;;;;8.50;8.50;;;;;19.65;46.85;102119.38;2387876;28;45252;-87
2022/08/08 06:08:12;;;;;;;;;10.50;7.25;;;;;19.64;46.80;102114.97;2382341;28;46051;-88
2022/08/08 06:09:27;;;;;;;;;11.00;7.75;;;;;19.64;46.65;102112.31;2383754;28;45770;-84
2022/08/08 06:10:39;;;;;;;;;8.00;7.50;;;;;19.64;46.49;102120.31;2392127;28;47099;-88
2022/08/08 06:11:50;;;;;;;;;10.50;9.00;;;;;19.60;46.98;102124.94;2383942;28;44658;-84
2022/08/08 06:13:01;;;;;;;;;8.00;7.25;;;;;19.60;46.84;102126.75;2386872;28;45326;-87
2022/08/08 06:14:13;;;;;;;;;7.50;7.50;;;;;19.60;46.94;102126.75;2380298;28;45493;-87
2022/08/08 06:15:23;;;;;;;;;9.00;8.25;;;;;19.59;46.86;102123.22;2384599;28;47299;-88
2022/08/08 06:16:40;;;;;;;;;10.25;7.50;;;;;19.58;46.49;102123.28;2392359;28;45881;-86
2022/08/08 06:17:52;;;;;;;;;6.75;6.25;;;;;19.59;46.78;102125.00;2384451;28;47968;-87
2022/08/08 06:19:03;;;;;;;;;7.00;5.25;;;;;19.61;46.64;102123.13;2383223;28;45827;-87
2022/08/08 06:20:13;;;;;;;;;11.75;8.50;;;;;19.64;46.28;102130.97;2386198;28;47133;-87
2022/08/08 06:21:25;;;;;;;;;10.00;8.00;;;;;19.65;46.71;102130.91;2383203;28;45456;-86
2022/08/08 06:22:36;;;;;;;;;10.00;6.75;;;;;19.65;46.72;102127.38;2387346;28;46220;-86
2022/08/08 06:23:47;;;;;;;;;9.00;7.00;;;;;19.64;46.83;102129.19;2393083;28;45248;-87
2022/08/08 06:24:57;;;;;;;;;9.00;9.00;;;;;19.63;46.78;102132.78;2383198;28;47058;-87
2022/08/08 06:26:10;;;;;;;;;9.00;8.00;;;;;19.64;46.92;102138.97;2381469;28;45379;-86
2022/08/08 06:27:36;;;;;;;;;10.50;9.00;;;;;19.63;46.75;102137.28;2393450;28;45649;-87
2022/08/08 06:29:01;;;;;;;;;11.00;9.25;;;;;19.65;46.84;102140.72;2393801;28;45322;-87
2022/08/08 06:30:13;;;;;;;;;7.00;7.00;;;;;19.67;47.02;102139.72;2393258;28;46675;-87
2022/08/08 06:31:26;;;;;;;;;10.50;10.50;;;;;19.72;46.90;102146.59;2393154;28;45414;-87
2022/08/08 06:32:47;;;;;;;;;8.25;7.75;;;;;19.72;46.36;102141.28;2393676;28;45482;-87
2022/08/08 06:34:14;;;;;;;;;9.25;9.25;;;;;19.76;46.67;102143.72;2392150;28;45164;-87
2022/08/08 06:35:25;;;;;;;;;7.75;6.25;;;;;19.77;46.61;102145.44;2392089;28;47158;-87
2022/08/08 06:36:38;;;;;;;;;11.50;10.50;;;;;19.79;46.57;102140.03;2383234;28;45187;-86
2022/08/08 06:37:48;;;;;;;;;9.50;8.00;;;;;19.79;46.59;102148.91;2386606;28;46674;-87
2022/08/08 06:39:01;;;;;;;;;9.00;9.00;;;;;19.81;46.90;102145.25;2383780;28;45176;-87
2022/08/08 06:40:14;;;;;;;;;10.50;8.00;;;;;19.83;46.79;102149.59;2386434;28;47219;-87
2022/08/08 06:41:26;;;;;;;;;8.25;7.25;;;;;19.84;46.80;102150.47;2383536;28;45252;-87
2022/08/08 06:42:38;;;;;;;;;8.75;7.75;;;;;19.83;46.12;102149.59;2383866;28;45397;-87
2022/08/08 06:43:55;;;;;;;;;9.00;8.50;;;;;19.85;47.22;102153.03;2384880;28;45192;-87
2022/08/08 06:45:06;;;;;;;;;7.25;7.25;;;;;19.90;46.40;102150.16;2392099;28;47965;-87
2022/08/08 06:46:17;;;;;;;;;7.25;7.00;;;;;19.91;46.65;102146.53;2378554;28;45352;-86
2022/08/08 06:47:28;;;;;;;;;11.50;8.75;;;;;19.96;46.36;102143.63;2383540;28;46974;-87
2022/08/08 06:48:38;;;;;;;;;10.75;10.50;;;;;19.98;46.20;102142.63;2386740;28;45280;-87
2022/08/08 06:49:49;;;;;;;;;6.50;5.50;;;;;20.02;46.37;102144.22;2392447;28;47046;-86
2022/08/08 06:51:01;;;;;;;;;7.00;7.00;;;;;20.05;46.44;102142.31;2382912;28;45180;-87
2022/08/08 06:52:14;;;;;;;;;10.50;8.50;;;;;20.08;46.61;102139.47;2386720;28;46302;-86
2022/08/08 06:53:26;;;;;;;;;7.50;7.00;;;;;20.12;46.20;102141.09;2392679;28;44753;-87
2022/08/08 06:54:36;;;;;;;;;9.00;9.00;;;;;20.14;46.35;102141.88;2381585;28;47139;-87
2022/08/08 06:55:47;;;;;;;;;7.50;7.50;;;;;20.16;46.26;102145.31;2381859;28;44631;-87
2022/08/08 06:56:58;;;;;;;;;8.00;7.25;;;;;20.19;46.29;102144.31;2393771;28;45302;-87
2022/08/08 06:58:09;;;;;;;;;10.50;7.75;;;;;20.19;46.46;102145.16;2393587;28;45471;-86
2022/08/08 06:59:19;;;;;;;;;9.75;6.75;;;;;20.23;46.09;102145.84;2383215;28;47098;-87
2022/08/08 07:00:34;;;;;;;;;13.00;8.75;;;;;20.23;46.39;102146.72;2386491;28;44847;-86
2022/08/08 07:01:51;;;;;;;;;10.00;8.25;;;;;20.26;46.23;102148.38;2392663;28;46492;-87
2022/08/08 07:03:05;;;;;;;;;11.50;9.25;;;;;20.29;45.95;102152.69;2393068;28;45223;-87
2022/08/08 07:04:23;;;;;;;;;8.00;8.00;;;;;20.31;46.05;102158.81;2393416;28;46460;-87
2022/08/08 07:05:38;;;;;;;;;10.00;7.50;;;;;20.33;45.91;102148.91;2392162;28;45436;-87
2022/08/08 07:06:54;;;;;;;;;11.75;10.50;;;;;20.37;45.77;102163.84;2374291;28;47708;-87
2022/08/08 07:08:16;;;;;;;;;8.00;7.75;;;;;20.39;45.78;102156.63;2374784;28;45362;-87
2022/08/08 07:09:37;;;;;;;;;9.00;7.50;;;;;20.46;45.94;102157.16;2377197;28;47342;-88
2022/08/08 07:10:51;;;;;;;;;9.25;6.50;;;;;20.52;45.73;102159.47;2386010;28;44641;-88
2022/08/08 07:12:06;;;;;;;;;9.00;9.00;;;;;20.57;45.63;102159.22;2391827;28;47314;-87
2022/08/08 07:13:18;;;;;;;;;12.00;10.25;;;;;20.61;45.68;102157.28;2382626;28;45460;-87
2022/08/08 07:14:48;;;;;;;;;8.25;7.50;;;;;20.64;45.72;102165.97;2386221;28;45408;-88
2022/08/08 07:16:07;;;;;;;;;6.75;6.00;;;;;20.65;45.90;102164.16;2392453;28;45292;-87
2022/08/08 07:17:23;;;;;;;;;7.50;7.25;;;;;20.66;44.99;102161.44;2393033;28;45549;-87
2022/08/08 07:18:51;;;;;;;;;8.00;7.50;;;;;20.72;45.38;102167.41;2392122;28;45340;-87
2022/08/08 07:20:07;;;;;;;;;8.00;6.25;;;;;20.73;45.40;102167.31;2387032;28;47314;-87
2022/08/08 07:21:22;;;;;;;;;6.00;5.75;;;;;20.74;44.96;102166.34;2386451;28;45222;-87
2022/08/08 07:22:38;;;;;;;;;8.25;6.25;;;;;20.77;45.21;102170.66;2392723;28;47083;-87
2022/08/08 07:24:05;;;;;;;;;9.75;9.00;;;;;20.77;45.00;102167.97;2389479;28;45218;-86
2022/08/08 07:25:16;;;;;;;;;8.00;7.00;;;;;20.76;45.01;102171.63;2388456;28;46291;-85
2022/08/08 07:26:31;;;;;;;;;7.00;6.00;;;;;20.76;44.97;102172.50;2392715;28;45282;-85
2022/08/08 07:27:46;;;;;;;;;9.25;9.25;;;;;20.76;44.90;102176.97;2392472;28;45341;-85
2022/08/08 07:28:57;;;;;;;;;9.00;6.25;;;;;20.78;44.97;102172.41;2382915;28;45191;-84
2022/08/08 07:30:08;;;;;;;;;10.00;8.00;;;;;20.85;45.17;102176.47;2383225;28;45450;-84
2022/08/08 07:31:19;;;;;;;;;7.25;7.25;;;;;20.89;44.84;102174.50;2375846;28;45333;-84
2022/08/08 07:32:31;;;;;;;;;5.75;5.50;;;;;20.92;44.79;102172.50;2386422;28;46456;-84
2022/08/08 07:33:42;;;;;;;;;12.50;7.00;;;;;20.98;44.92;102178.47;2393402;28;44699;-84
2022/08/08 07:34:54;;;;;;;;;6.75;5.75;;;;;21.03;45.17;102179.13;2393291;28;45412;-84
2022/08/08 07:36:07;;;;;;;;;8.00;8.00;;;;;21.07;44.71;102178.00;2392705;28;45310;-84
2022/08/08 07:37:21;;;;;;;;;9.50;7.00;;;;;21.10;44.97;102175.16;2383286;28;46104;-84
2022/08/08 07:38:34;;;;;;;;;7.25;6.00;;;;;21.14;44.78;102178.50;2386424;28;45278;-84
2022/08/08 07:39:46;;;;;;;;;7.25;7.25;;;;;21.20;44.36;102179.97;2391907;28;45556;-85
2022/08/08 07:40:59;;;;;;;;;7.00;7.00;;;;;21.23;44.44;102179.81;2391447;28;45293;-84
2022/08/08 07:42:12;;;;;;;;;9.00;9.00;;;;;21.28;44.44;102185.78;2392804;28;46473;-85
2022/08/08 07:43:22;;;;;;;;;7.50;6.50;;;;;21.32;44.24;102179.28;2393507;28;44767;-85
2022/08/08 07:44:34;;;;;;;;;7.50;6.25;;;;;21.38;44.26;102182.56;2391527;28;47539;-84
2022/08/08 07:45:44;;;;;;;;;8.75;8.75;;;;;21.39;44.02;102182.47;2392514;28;45551;-85
2022/08/08 07:46:55;;;;;;;;;10.00;8.00;;;;;21.42;44.36;102178.78;2393245;28;45365;-84
2022/08/08 07:48:05;;;;;;;;;9.75;6.25;;;;;21.45;43.58;102176.78;2383311;28;45238;-83
2022/08/08 07:49:16;;;;;;;;;6.25;6.25;;;;;21.51;43.89;102186.25;2383277;28;46421;-84
2022/08/08 07:50:26;;;;;;;;;7.25;6.00;;;;;21.58;43.59;102182.28;2391201;28;45167;-85
2022/08/08 07:51:37;;;;;;;;;6.00;6.00;;;;;21.61;43.58;102181.25;2393323;28;45581;-84
2022/08/08 07:52:51;;;;;;;;;9.25;7.75;;;;;21.65;43.20;102181.94;2393142;28;44668;-84
2022/08/08 07:54:14;;;;;;;;;5.75;5.00;;;;;21.69;42.90;102179.00;2387854;28;46379;-85
2022/08/08 07:55:27;;;;;;;;;7.50;5.50;;;;;21.73;43.46;102187.69;2388012;28;45361;-85
2022/08/08 07:56:54;;;;;;;;;6.00;5.75;;;;;21.75;43.11;102183.16;2393298;28;45398;-84
2022/08/08 07:58:28;;;;;;;;;5.25;4.50;;;;;21.79;42.99;102187.38;2393459;28;44702;-84
2022/08/08 08:00:04;;;;;;;;;4.75;4.75;;;;;21.80;43.16;102181.03;2392983;28;45493;-84
2022/08/08 08:01:20;;;;;;;;;6.75;5.50;;;;;21.86;43.05;102176.28;2391653;28;45608;-85
2022/08/08 08:02:38;;;;;;;;;8.25;7.75;;;;;21.91;43.15;102176.91;2386336;28;45421;-83
2022/08/08 08:04:01;;;;;;;;;7.00;6.50;;;;;21.96;42.04;102179.31;2393371;28;45187;-85
2022/08/08 08:05:23;;;;;;;;;8.50;5.50;;;;;21.97;42.38;102173.88;2393192;28;45428;-84
2022/08/08 08:06:34;;;;;;;;;7.50;5.00;;;;;21.98;42.43;102175.59;2386348;28;45358;-84
2022/08/08 08:07:52;;;;;;;;;6.75;6.75;;;;;22.03;42.90;102172.66;2393739;28;45477;-84
2022/08/08 08:09:17;;;;;;;;;6.25;6.25;;;;;22.09;42.86;102177.66;2393010;28;44723;-84
2022/08/08 08:10:28;;;;;;;;;7.00;7.00;;;;;22.14;41.79;102172.00;2391159;28;45667;-85
2022/08/08 08:11:44;;;;;;;;;6.75;5.25;;;;;22.19;41.97;102175.28;2391827;28;45583;-84
2022/08/08 08:13:29;;;;;;;;;9.25;8.25;;;;;22.22;41.94;102175.09;2393031;28;46198;-83
2022/08/08 08:14:42;;;;;;;;;6.75;5.75;;;;;22.28;41.90;102170.31;2390292;28;45214;-88
2022/08/08 08:16:05;;;;;;;;;5.50;4.50;;;;;22.30;41.90;102179.13;2395901;28;45578;-87
2022/08/08 08:17:18;;;;;;;;;7.50;6.00;;;;;22.35;41.60;102180.56;2391756;28;44795;-88
2022/08/08 08:18:54;;;;;;;;;6.00;6.00;;;;;22.39;41.78;102180.38;2393123;28;45519;-87
2022/08/08 08:20:06;;;;;;;;;6.75;5.75;;;;;22.42;41.96;102178.34;2383531;28;44795;-88
2022/08/08 08:21:18;;;;;;;;;6.00;6.00;;;;;22.46;41.64;102177.25;2385089;28;45429;-87
2022/08/08 08:22:28;;;;;;;;;7.25;7.25;;;;;22.51;41.51;102182.31;2393934;28;45303;-88
2022/08/08 08:23:38;;;;;;;;;5.75;5.00;;;;;22.53;40.87;102180.41;2394624;28;46506;-89
2022/08/08 08:24:48;;;;;;;;;6.00;6.00;;;;;22.56;41.30;102177.53;2390688;28;44707;-87
2022/08/08 08:25:59;;;;;;;;;6.50;5.50;;;;;22.60;40.98;102176.38;2382408;28;46923;-89
2022/08/08 08:27:10;;;;;;;;;5.00;5.00;;;;;22.65;41.28;102184.13;2386941;28;45283;-88
2022/08/08 08:28:21;;;;;;;;;5.00;5.00;;;;;22.68;40.68;102181.25;2393794;28;47401;-88
2022/08/08 08:29:31;;;;;;;;;7.25;5.50;;;;;22.70;40.97;102174.03;2393995;28;44577;-88
2022/08/08 08:30:41;;;;;;;;;8.00;6.00;;;;;22.72;41.02;102176.59;2391209;28;47332;-87
2022/08/08 08:31:52;;;;;;;;;5.00;4.25;;;;;22.75;40.78;102173.72;2394174;28;45471;-87
2022/08/08 08:33:02;;;;;;;;;5.00;5.00;;;;;22.81;40.43;102173.34;2394166;28;45368;-87
2022/08/08 08:34:13;;;;;;;;;5.00;5.00;;;;;22.85;40.15;102173.16;2394749;28;44784;-87
2022/08/08 08:35:23;;;;;;;;;6.00;6.00;;;;;22.89;40.85;102175.53;2392241;28;47101;-87
2022/08/08 08:36:34;;;;;;;;;7.25;5.75;;;;;22.93;39.88;102169.03;2394226;28;45343;-87
2022/08/08 08:37:44;;;;;;;;;4.50;4.50;;;;;22.98;39.87;102176.78;2394517;28;45432;-88
2022/08/08 08:38:55;;;;;;;;;5.75;4.75;;;;;23.00;40.28;102177.53;2394547;28;45219;-89
2022/08/08 08:40:06;;;;;;;;;4.25;4.25;;;;;23.06;40.58;102176.31;2391313;28;45477;-88
2022/08/08 08:41:20;;;;;;;;;4.50;4.50;;;;;23.09;39.85;102176.06;2389501;28;45509;-87
2022/08/08 08:42:30;;;;;;;;;5.00;5.00;;;;;23.14;40.00;102178.47;2387517;28;46456;-88
2022/08/08 08:43:41;;;;;;;;;5.00;3.50;;;;;23.19;39.30;102180.88;2384775;28;44686;-88
2022/08/08 08:44:52;;;;;;;;;6.00;4.75;;;;;23.20;39.55;102183.44;2384268;28;47169;-89
2022/08/08 08:46:07;;;;;;;;;4.00;4.00;;;;;23.22;39.49;102183.34;2390354;28;45444;-88
2022/08/08 08:47:19;;;;;;;;;4.25;2.00;;;;;23.25;39.40;102175.09;2392048;28;46329;-88
2022/08/08 08:48:30;;;;;;;;;4.00;4.00;;;;;23.27;39.16;102176.72;2382023;28;44737;-88
2022/08/08 08:49:40;;;;;;;;;4.00;4.00;;;;;23.30;38.66;102178.34;2376249;28;48099;-89
2022/08/08 08:50:52;;;;;;;;;5.75;3.25;;;;;23.33;39.08;102169.25;2387492;28;45263;-89
2022/08/08 08:52:04;;;;;;;;;2.75;2.00;;;;;23.36;39.27;102180.63;2394425;28;46602;-86
2022/08/08 08:53:15;;;;;;;;;4.75;4.75;;;;;23.41;39.25;102183.00;2391725;28;45155;-88
2022/08/08 08:54:25;;;;;;;;;3.25;3.25;;;;;23.43;39.28;102174.88;2393872;28;47229;-86
2022/08/08 08:55:38;;;;;;;;;5.25;4.25;;;;;23.47;38.94;102181.75;2384383;28;45306;-88
2022/08/08 08:56:49;;;;;;;;;4.75;4.75;;;;;23.51;38.85;102183.28;2387151;28;47225;-88
2022/08/08 08:58:01;;;;;;;;;6.00;4.75;;;;;23.54;38.49;102177.72;2393791;28;45322;-88
2022/08/08 08:59:12;;;;;;;;;5.00;4.00;;;;;23.56;39.09;102175.78;2393936;28;45256;-87
2022/08/08 09:00:23;;;;;;;;;5.75;3.00;;;;;23.60;38.87;102187.19;2394563;28;45240;-89
2022/08/08 09:01:37;;;;;;;;;5.75;5.00;;;;;23.64;38.78;102180.66;2393725;28;45357;-88
2022/08/08 09:02:50;;;;;;;;;5.25;4.00;;;;;23.67;38.74;102171.53;2384481;28;45332;-89
2022/08/08 09:04:07;;;;;;;;;4.75;4.50;;;;;23.69;38.80;102167.81;2393845;28;45540;-88
2022/08/08 09:05:20;;;;;;;;;4.75;3.75;;;;;23.72;38.56;102169.41;2393659;28;45240;-88
2022/08/08 09:06:38;;;;;;;;;6.75;5.75;;;;;23.75;38.34;102168.34;2393753;28;46892;-88
2022/08/08 09:07:52;;;;;;;;;6.00;5.00;;;;;23.78;38.67;102174.38;2391666;28;45199;-88
2022/08/08 09:09:24;;;;;;;;;4.75;4.25;;;;;23.81;38.68;102168.78;2388244;28;45408;-88
2022/08/08 09:10:40;;;;;;;;;5.00;5.00;;;;;23.89;38.46;102170.09;2394519;28;44653;-88
2022/08/08 09:11:53;;;;;;;;;4.00;4.00;;;;;23.89;38.25;102165.59;2393186;28;45493;-88
2022/08/08 09:13:08;;;;;;;;;7.25;4.25;;;;;23.91;38.33;102166.34;2384371;28;45409;-89
2022/08/08 09:14:22;;;;;;;;;4.50;3.50;;;;;23.92;37.62;102165.41;2382917;28;45429;-88
2022/08/08 09:15:33;;;;;;;;;5.00;5.00;;;;;23.93;37.59;102168.91;2393362;28;44705;-88
2022/08/08 09:16:44;;;;;;;;;6.00;5.00;;;;;23.96;38.14;102166.03;2383977;28;48073;-88
2022/08/08 09:17:56;;;;;;;;;4.25;4.25;;;;;23.98;37.79;102166.78;2386980;28;45361;-88
2022/08/08 09:19:07;;;;;;;;;4.00;4.00;;;;;24.03;37.04;102170.00;2384120;28;48048;-88
2022/08/08 09:20:18;;;;;;;;;5.75;4.50;;;;;24.02;37.05;102165.63;2387370;28;45263;-88
2022/08/08 09:21:30;;;;;;;;;2.50;2.00;;;;;24.04;37.28;102169.06;2394268;28;46257;-88